createdAt,value
2023-01-28T00:01:31.255Z,-1.90
2023-01-28T00:03:59.000Z,-1.95
2023-01-28T00:06:26.649Z,-1.93
2023-01-28T00:08:54.812Z,-1.87
2023-01-28T00:11:23.406Z,-1.90
2023-01-28T00:13:52.517Z,-1.87
2023-01-28T00:16:22.604Z,-1.84
2023-01-28T00:18:50.459Z,-1.82
2023-01-28T00:21:18.054Z,-1.89
2023-01-28T00:23:49.952Z,-1.87
2023-01-28T00:26:17.657Z,-1.89
2023-01-28T00:28:45.778Z,-1.86
2023-01-28T00:31:17.042Z,-1.83
2023-01-28T00:33:46.714Z,-1.80
2023-01-28T00:36:15.256Z,-1.78
2023-01-28T00:38:43.501Z,-1.77
2023-01-28T00:41:12.919Z,-1.79
2023-01-28T00:43:41.155Z,-1.83
2023-01-28T00:46:09.589Z,-1.84
2023-01-28T00:48:37.680Z,-1.80
2023-01-28T00:51:07.519Z,-1.77
2023-01-28T00:53:36.136Z,-1.82
2023-01-28T00:56:04.161Z,-1.82
2023-01-28T00:58:31.959Z,-1.81
2023-01-28T01:01:08.402Z,-1.78
2023-01-28T01:03:36.048Z,-1.81
2023-01-28T01:06:03.797Z,-1.84
2023-01-28T01:08:35.937Z,-1.83
2023-01-28T01:11:04.615Z,-1.82
2023-01-28T01:13:32.713Z,-1.79
2023-01-28T01:16:05.587Z,-1.78
2023-01-28T01:18:34.103Z,-1.75
2023-01-28T01:21:02.269Z,-1.74
2023-01-28T01:23:32.222Z,-1.75
2023-01-28T01:26:00.504Z,-1.75
2023-01-28T01:28:28.088Z,-1.73
2023-01-28T01:31:00.560Z,-1.70
2023-01-28T01:33:29.531Z,-1.79
2023-01-28T01:35:57.566Z,-1.79
2023-01-28T01:38:25.384Z,-1.76
2023-01-28T01:40:57.858Z,-1.81
2023-01-28T01:43:25.793Z,-1.82
2023-01-28T01:45:56.521Z,-1.86
2023-01-28T01:48:26.223Z,-1.85
2023-01-28T01:50:56.345Z,-1.86
2023-01-28T01:53:26.207Z,-1.83
2023-01-28T01:55:58.002Z,-1.89
2023-01-28T01:58:28.751Z,-1.87
2023-01-28T02:00:57.248Z,-1.97
2023-01-28T02:03:29.162Z,-1.95
2023-01-28T02:05:56.663Z,-1.92
2023-01-28T02:08:25.627Z,-1.91
2023-01-28T02:10:56.677Z,-1.89
2023-01-28T02:13:26.960Z,-1.84
2023-01-28T02:15:55.012Z,-1.81
2023-01-28T02:18:22.712Z,-1.79
2023-01-28T02:21:06.212Z,-1.80
2023-01-28T02:23:46.356Z,-1.86
2023-01-28T02:26:44.895Z,-1.86
2023-01-28T02:29:17.540Z,-1.86
2023-01-28T02:31:49.138Z,-1.91
2023-01-28T02:34:22.528Z,-1.88
2023-01-28T02:36:53.803Z,-1.86
2023-01-28T02:39:24.532Z,-1.84
2023-01-28T02:41:54.879Z,-1.89
2023-01-28T02:44:23.882Z,-1.89
2023-01-28T02:47:11.573Z,-1.85
2023-01-28T02:49:43.192Z,-1.90
2023-01-28T02:52:45.909Z,-1.87
2023-01-28T02:55:19.822Z,-1.86
2023-01-28T02:57:53.679Z,-1.86
2023-01-28T03:00:26.045Z,-1.86
2023-01-28T03:03:00.788Z,-1.84
2023-01-28T03:05:31.492Z,-1.85
2023-01-28T03:07:59.138Z,-1.82
2023-01-28T03:10:26.925Z,-1.82
2023-01-28T03:13:13.642Z,-1.81
2023-01-28T03:16:03.407Z,-1.79
2023-01-28T03:18:51.860Z,-1.84
2023-01-28T03:21:40.680Z,-1.80
2023-01-28T03:24:29.537Z,-1.84
2023-01-28T03:27:16.858Z,-1.84
2023-01-28T03:30:02.645Z,-1.82
2023-01-28T03:32:49.283Z,-1.94
2023-01-28T03:35:36.609Z,-1.92
2023-01-28T03:38:18.030Z,-1.96
2023-01-28T03:40:50.959Z,-1.89
2023-01-28T03:43:18.685Z,-1.87
2023-01-28T03:45:51.561Z,-1.84
2023-01-28T03:48:20.951Z,-1.83
2023-01-28T03:50:49.110Z,-1.83
2023-01-28T03:53:17.237Z,-1.87
2023-01-28T03:55:45.609Z,-1.90
2023-01-28T03:58:15.429Z,-1.91
2023-01-28T04:00:43.739Z,-1.93
2023-01-28T04:03:17.001Z,-1.98
2023-01-28T04:05:47.419Z,-1.96
2023-01-28T04:08:15.188Z,-1.93
2023-01-28T04:10:43.900Z,-1.95
2023-01-28T04:13:13.462Z,-1.97
2023-01-28T04:15:41.256Z,-1.96
2023-01-28T04:18:08.947Z,-1.95
2023-01-28T04:20:37.433Z,-1.95
2023-01-28T04:23:07.016Z,-1.93
2023-01-28T04:25:35.291Z,-1.93
2023-01-28T04:28:03.191Z,-1.91
2023-01-28T04:30:31.562Z,-1.90
2023-01-28T04:32:59.153Z,-1.87
2023-01-28T04:35:26.765Z,-1.87
2023-01-28T04:37:54.328Z,-1.84
2023-01-28T04:40:23.411Z,-1.84
2023-01-28T04:42:54.398Z,-1.82
2023-01-28T04:45:22.202Z,-1.82
2023-01-28T04:47:49.859Z,-1.80
2023-01-28T04:50:18.212Z,-1.79
2023-01-28T04:52:45.802Z,-1.76
2023-01-28T04:55:13.723Z,-1.78
2023-01-28T04:57:42.880Z,-1.78
2023-01-28T05:00:11.507Z,-1.78
2023-01-28T05:02:39.072Z,-1.82
2023-01-28T05:05:08.945Z,-1.83
2023-01-28T05:07:36.670Z,-1.89
2023-01-28T05:10:04.805Z,-1.84
2023-01-28T05:12:33.029Z,-1.84
2023-01-28T05:15:01.960Z,-1.81
2023-01-28T05:17:30.214Z,-1.80
2023-01-28T05:19:57.890Z,-1.94
2023-01-28T05:22:25.530Z,-1.91
2023-01-28T05:24:53.113Z,-1.94
2023-01-28T05:27:20.750Z,-1.91
2023-01-28T05:29:48.397Z,-2.01
2023-01-28T05:32:17.450Z,-2.05
2023-01-28T05:34:45.138Z,-2.06
2023-01-28T05:37:12.819Z,-2.06
2023-01-28T05:39:40.435Z,-1.98
2023-01-28T05:42:08.178Z,-1.97
2023-01-28T05:44:36.354Z,-2.03
2023-01-28T05:47:04.037Z,-1.98
2023-01-28T05:49:32.987Z,-1.95
2023-01-28T05:52:01.467Z,-2.18
2023-01-28T05:54:29.281Z,-2.13
2023-01-28T05:56:56.949Z,-2.08
2023-01-28T05:59:24.632Z,-2.11
2023-01-28T06:01:52.272Z,-2.24
2023-01-28T06:04:20.226Z,-2.16
2023-01-28T06:06:49.258Z,-2.15
2023-01-28T06:09:16.921Z,-2.20
2023-01-28T06:11:45.648Z,-2.16
2023-01-28T06:14:13.277Z,-2.18
2023-01-28T06:16:41.011Z,-2.15
2023-01-28T06:19:08.676Z,-2.12
2023-01-28T06:21:36.366Z,-2.11
2023-01-28T06:24:05.472Z,-2.08
2023-01-28T06:26:33.252Z,-2.08
2023-01-28T06:29:00.880Z,-2.07
2023-01-28T06:31:28.504Z,-2.12
2023-01-28T06:33:56.263Z,-2.12
2023-01-28T06:36:24.093Z,-2.06
2023-01-28T06:38:51.708Z,-2.02
2023-01-28T06:41:24.040Z,-2.01
2023-01-28T06:43:51.629Z,-2.03
2023-01-28T06:46:19.495Z,-2.03
2023-01-28T06:48:47.145Z,-2.01
2023-01-28T06:51:14.814Z,-2.02
2023-01-28T06:53:43.254Z,-2.04
2023-01-28T06:56:12.291Z,-2.01
2023-01-28T06:58:41.259Z,-2.04
2023-01-28T07:01:08.871Z,-2.08
2023-01-28T07:03:37.543Z,-2.04
2023-01-28T07:06:05.685Z,-2.05
2023-01-28T07:08:33.469Z,-2.01
2023-01-28T07:11:01.756Z,-1.99
2023-01-28T07:13:29.358Z,-2.03
2023-01-28T07:15:58.348Z,-1.97
2023-01-28T07:18:26.063Z,-1.99
2023-01-28T07:20:53.815Z,-1.94
2023-01-28T07:23:21.433Z,-1.90
2023-01-28T07:25:49.082Z,-1.88
2023-01-28T07:28:21.251Z,-1.86
2023-01-28T07:30:52.552Z,-1.80
2023-01-28T07:33:22.559Z,-1.80
2023-01-28T07:35:50.267Z,-1.76
2023-01-28T07:38:17.957Z,-1.73
2023-01-28T07:40:45.845Z,-1.69
2023-01-28T07:43:13.531Z,-1.70
2023-01-28T07:45:41.202Z,-1.62
2023-01-28T07:48:10.635Z,-1.59
2023-01-28T07:50:41.999Z,-1.59
2023-01-28T07:53:11.627Z,-1.61
2023-01-28T07:55:39.406Z,-1.68
2023-01-28T07:58:08.318Z,-1.61
2023-01-28T08:00:37.422Z,-1.56
2023-01-28T08:03:06.889Z,-1.52
2023-01-28T08:05:43.390Z,-1.49
2023-01-28T08:08:11.468Z,-1.43
2023-01-28T08:10:44.026Z,-1.43
2023-01-28T08:13:12.626Z,-1.40
2023-01-28T08:15:40.906Z,-1.47
2023-01-28T08:18:09.799Z,-1.62
2023-01-28T08:20:37.533Z,-1.72
2023-01-28T08:23:10.855Z,-1.70
2023-01-28T08:25:38.653Z,-1.66
2023-01-28T08:28:06.820Z,-1.63
2023-01-28T08:30:35.113Z,-1.70
2023-01-28T08:33:02.975Z,-1.66
2023-01-28T08:35:30.959Z,-1.62
2023-01-28T08:38:00.792Z,-1.58
2023-01-28T08:40:30.315Z,-1.56
2023-01-28T08:42:58.127Z,-1.52
2023-01-28T08:45:28.721Z,-1.48
2023-01-28T08:47:57.886Z,-1.47
2023-01-28T08:50:26.759Z,-1.42
2023-01-28T08:52:58.234Z,-1.43
2023-01-28T08:55:26.421Z,-1.39
2023-01-28T08:57:58.210Z,-1.37
2023-01-28T09:00:26.385Z,-1.35
2023-01-28T09:02:54.676Z,-1.36
2023-01-28T09:05:22.913Z,-1.33
2023-01-28T09:07:50.915Z,-1.31
2023-01-28T09:10:20.444Z,-1.31
2023-01-28T09:12:48.116Z,-1.45
2023-01-28T09:15:17.252Z,-1.42
2023-01-28T09:17:44.893Z,-1.41
2023-01-28T09:20:14.238Z,-1.37
2023-01-28T09:22:41.970Z,-1.31
2023-01-28T09:25:10.299Z,-1.25
2023-01-28T09:27:37.885Z,-1.23
2023-01-28T09:30:07.125Z,-1.24
2023-01-28T09:32:36.148Z,-1.21
2023-01-28T09:35:03.887Z,-1.14
2023-01-28T09:37:31.505Z,-1.17
2023-01-28T09:39:59.128Z,-1.16
2023-01-28T09:42:41.070Z,-1.12
2023-01-28T09:45:16.074Z,-1.01
2023-01-28T09:47:47.856Z,-1.03
2023-01-28T09:50:17.817Z,-0.90
2023-01-28T09:52:46.464Z,-0.84
2023-01-28T09:55:19.570Z,-0.82
2023-01-28T09:57:49.374Z,-0.84
2023-01-28T10:00:20.041Z,-0.80
2023-01-28T10:03:02.059Z,-0.81
2023-01-28T10:05:34.891Z,-0.79
2023-01-28T10:08:10.014Z,-0.72
2023-01-28T10:10:42.079Z,-0.72
2023-01-28T10:13:13.953Z,-0.69
2023-01-28T10:15:55.599Z,-0.71
2023-01-28T10:18:32.105Z,-0.84
2023-01-28T10:21:06.152Z,-0.71
2023-01-28T10:23:41.203Z,-0.58
2023-01-28T10:26:18.293Z,-0.44
2023-01-28T10:28:46.418Z,-0.30
2023-01-28T10:31:15.144Z,-0.33
2023-01-28T10:33:44.190Z,-0.20
2023-01-28T10:36:11.835Z,-0.26
2023-01-28T10:38:39.488Z,-0.39
2023-01-28T10:41:08.936Z,-0.38
2023-01-28T10:43:38.579Z,-0.20
2023-01-28T10:46:09.284Z,-0.15
2023-01-28T10:48:40.093Z,-0.11
2023-01-28T10:51:09.033Z,-0.02
2023-01-28T10:53:37.914Z,-0.13
2023-01-28T10:56:07.333Z,-0.20
2023-01-28T10:58:37.623Z,-0.15
2023-01-28T11:01:07.496Z,0.03
2023-01-28T11:03:35.901Z,0.24
2023-01-28T11:06:04.380Z,0.36
2023-01-28T11:08:44.549Z,0.31
2023-01-28T11:11:15.723Z,0.41
2023-01-28T11:13:51.932Z,0.31
2023-01-28T11:16:20.124Z,0.42
2023-01-28T11:18:49.895Z,0.51
2023-01-28T11:21:19.808Z,0.63
2023-01-28T11:23:52.674Z,0.74
2023-01-28T11:26:22.409Z,0.71
2023-01-28T11:28:50.517Z,0.57
2023-01-28T11:31:19.305Z,0.65
2023-01-28T11:33:50.556Z,0.74
2023-01-28T11:36:20.224Z,0.71
2023-01-28T11:38:54.617Z,0.82
2023-01-28T11:41:28.979Z,0.90
2023-01-28T11:43:56.893Z,0.85
2023-01-28T11:46:48.528Z,0.87
2023-01-28T11:49:23.350Z,0.93
2023-01-28T11:51:55.942Z,0.97
2023-01-28T11:54:34.275Z,1.09
2023-01-28T11:57:15.866Z,1.06
2023-01-28T11:59:55.857Z,1.00
2023-01-28T12:02:40.420Z,0.93
2023-01-28T12:05:20.756Z,0.87
2023-01-28T12:07:55.533Z,0.78
2023-01-28T12:10:30.261Z,0.54
2023-01-28T12:13:13.283Z,0.81
2023-01-28T12:16:00.161Z,0.95
2023-01-28T12:18:42.260Z,0.49
2023-01-28T12:21:12.787Z,0.52
2023-01-28T12:23:52.108Z,0.53
2023-01-28T12:26:28.287Z,0.35
2023-01-28T12:29:08.358Z,0.41
2023-01-28T12:31:54.093Z,0.43
2023-01-28T12:34:54.348Z,0.54
2023-01-28T12:37:29.039Z,0.63
2023-01-28T12:40:07.842Z,0.55
2023-01-28T12:42:40.511Z,0.56
2023-01-28T12:45:16.432Z,0.63
2023-01-28T12:47:49.269Z,0.12
2023-01-28T12:50:20.983Z,-0.06
2023-01-28T12:52:51.614Z,0.02
2023-01-28T12:55:22.270Z,0.02
2023-01-28T12:57:53.622Z,0.07
2023-01-28T13:00:27.352Z,0.09
2023-01-28T13:02:59.537Z,-0.03
2023-01-28T13:05:32.791Z,-0.09
2023-01-28T13:08:03.413Z,-0.17
2023-01-28T13:10:36.411Z,-0.07
2023-01-28T13:13:05.839Z,-0.19
2023-01-28T13:15:33.742Z,-0.12
2023-01-28T13:18:02.600Z,-0.02
2023-01-28T13:20:37.636Z,0.09
2023-01-28T13:23:07.544Z,0.15
2023-01-28T13:25:36.010Z,0.26
2023-01-28T13:28:06.798Z,0.36
2023-01-28T13:30:36.097Z,0.28
2023-01-28T13:33:05.483Z,0.26
2023-01-28T13:35:35.645Z,0.32
2023-01-28T13:38:11.744Z,0.32
2023-01-28T13:40:40.244Z,0.25
2023-01-28T13:43:38.058Z,0.31
2023-01-28T13:46:09.000Z,0.35
2023-01-28T13:48:42.990Z,0.31
2023-01-28T13:51:20.074Z,0.29
2023-01-28T13:53:50.620Z,0.33
2023-01-28T13:56:22.441Z,0.25
2023-01-28T13:59:19.135Z,0.20
2023-01-28T14:01:56.644Z,0.19
2023-01-28T14:04:42.472Z,0.22
2023-01-28T14:07:18.366Z,0.25
2023-01-28T14:10:00.238Z,0.13
2023-01-28T14:12:52.589Z,0.13
2023-01-28T14:15:43.805Z,0.17
2023-01-28T14:18:16.780Z,0.06
2023-01-28T14:20:45.991Z,0.04
2023-01-28T14:23:18.934Z,0.06
2023-01-28T14:25:57.598Z,0.07
2023-01-28T14:28:41.954Z,0.05
2023-01-28T14:31:13.539Z,0.00
2023-01-28T14:33:42.110Z,-0.11
2023-01-28T14:36:11.470Z,-0.05
2023-01-28T14:38:41.310Z,0.02
2023-01-28T14:41:09.684Z,-0.08
2023-01-28T14:43:38.046Z,-0.06
2023-01-28T14:46:17.030Z,-0.03
2023-01-28T14:48:50.679Z,0.03
2023-01-28T14:51:30.379Z,0.05
2023-01-28T14:54:11.775Z,0.06
2023-01-28T14:56:51.163Z,0.06
2023-01-28T14:59:21.303Z,0.07
2023-01-28T15:01:55.455Z,0.02
2023-01-28T15:04:25.588Z,-0.03
2023-01-28T15:06:53.293Z,-0.07
2023-01-28T15:09:24.228Z,-0.02
2023-01-28T15:11:55.047Z,-0.01
2023-01-28T15:14:27.371Z,-0.01
2023-01-28T15:16:56.746Z,-0.12
2023-01-28T15:19:29.418Z,-0.07
2023-01-28T15:21:58.044Z,-0.03
2023-01-28T15:24:26.169Z,0.02
2023-01-28T15:26:54.132Z,0.05
2023-01-28T15:29:25.533Z,0.05
2023-01-28T15:31:53.578Z,0.07
2023-01-28T15:34:23.545Z,0.05
2023-01-28T15:36:51.216Z,0.06
2023-01-28T15:39:20.547Z,0.04
2023-01-28T15:41:50.395Z,-0.09
2023-01-28T15:44:19.637Z,-0.16
2023-01-28T15:46:47.288Z,-0.16
2023-01-28T15:49:15.853Z,-0.16
2023-01-28T15:51:50.911Z,-0.16
2023-01-28T15:54:18.717Z,-0.29
2023-01-28T15:56:46.506Z,-0.33
2023-01-28T15:59:20.867Z,-0.35
2023-01-28T16:01:48.507Z,-0.33
2023-01-28T16:04:27.002Z,-0.33
2023-01-28T16:06:57.353Z,-0.32
2023-01-28T16:09:27.953Z,-0.28
2023-01-28T16:12:02.673Z,-0.24
2023-01-28T16:14:32.151Z,-0.22
2023-01-28T16:16:59.775Z,-0.26
2023-01-28T16:19:33.433Z,-0.27
2023-01-28T16:22:02.615Z,-0.30
2023-01-28T16:24:32.324Z,-0.26
2023-01-28T16:27:01.560Z,-0.25
2023-01-28T16:29:31.054Z,-0.25
2023-01-28T16:32:00.497Z,-0.30
2023-01-28T16:34:28.568Z,-0.29
2023-01-28T16:36:58.645Z,-0.32
2023-01-28T16:39:27.612Z,-0.29
2023-01-28T16:41:56.911Z,-0.32
2023-01-28T16:44:24.598Z,-0.33
2023-01-28T16:46:52.360Z,-0.36
2023-01-28T16:49:20.019Z,-0.32
2023-01-28T16:51:47.620Z,-0.33
2023-01-28T16:54:17.457Z,-0.51
2023-01-28T16:56:47.079Z,-0.49
2023-01-28T16:59:15.904Z,-0.49
2023-01-28T17:01:43.764Z,-0.42
2023-01-28T17:04:12.732Z,-0.38
2023-01-28T17:06:42.888Z,-0.36
2023-01-28T17:09:11.091Z,-0.32
2023-01-28T17:11:39.650Z,-0.28
2023-01-28T17:14:09.121Z,-0.26
2023-01-28T17:16:36.957Z,-0.24
2023-01-28T17:19:04.795Z,-0.24
2023-01-28T17:21:32.615Z,-0.24
2023-01-28T17:24:01.275Z,-0.25
2023-01-28T17:26:29.906Z,-0.25
2023-01-28T17:28:57.648Z,-0.28
2023-01-28T17:31:27.340Z,-0.31
2023-01-28T17:33:56.362Z,-0.34
2023-01-28T17:36:24.360Z,-0.36
2023-01-28T17:38:52.007Z,-0.32
2023-01-28T17:41:20.058Z,-0.35
2023-01-28T17:43:51.324Z,-0.35
2023-01-28T17:46:19.293Z,-0.40
2023-01-28T17:48:48.990Z,-0.42
2023-01-28T17:51:18.679Z,-0.56
2023-01-28T17:53:48.447Z,-0.53
2023-01-28T17:56:18.013Z,-0.49
2023-01-28T17:58:50.553Z,-0.44
2023-01-28T18:01:18.364Z,-0.46
2023-01-28T18:03:45.981Z,-0.45
2023-01-28T18:06:15.029Z,-0.43
2023-01-28T18:08:42.666Z,-0.43
2023-01-28T18:11:10.839Z,-0.45
2023-01-28T18:13:38.968Z,-0.41
2023-01-28T18:16:08.402Z,-0.40
2023-01-28T18:18:36.365Z,-0.40
2023-01-28T18:21:05.968Z,-0.40
2023-01-28T18:23:35.538Z,-0.39
2023-01-28T18:26:07.259Z,-0.48
2023-01-28T18:28:34.881Z,-0.58
2023-01-28T18:31:05.936Z,-0.61
2023-01-28T18:33:33.496Z,-0.57
2023-01-28T18:36:01.101Z,-0.59
2023-01-28T18:38:28.745Z,-0.54
2023-01-28T18:40:57.898Z,-0.52
2023-01-28T18:43:26.365Z,-0.52
2023-01-28T18:45:54.067Z,-0.57
2023-01-28T18:48:22.028Z,-0.56
2023-01-28T18:50:53.381Z,-0.63
2023-01-28T18:53:21.442Z,-0.69
2023-01-28T18:55:49.362Z,-0.68
2023-01-28T18:58:18.627Z,-0.69
2023-01-28T19:00:46.345Z,-0.68
2023-01-28T19:03:14.029Z,-0.62
2023-01-28T19:05:41.636Z,-0.53
2023-01-28T19:08:09.689Z,-0.53
2023-01-28T19:10:37.542Z,-0.50
2023-01-28T19:13:05.524Z,-0.49
2023-01-28T19:15:34.599Z,-0.47
2023-01-28T19:18:03.350Z,-0.41
2023-01-28T19:20:31.158Z,-0.41
2023-01-28T19:22:58.789Z,-0.43
2023-01-28T19:25:26.402Z,-0.40
2023-01-28T19:27:54.788Z,-0.39
2023-01-28T19:30:22.728Z,-0.34
2023-01-28T19:32:53.930Z,-0.33
2023-01-28T19:35:21.651Z,-0.32
2023-01-28T19:37:49.269Z,-0.30
2023-01-28T19:40:17.681Z,-0.26
2023-01-28T19:42:45.989Z,-0.22
2023-01-28T19:45:13.968Z,-0.21
2023-01-28T19:47:42.066Z,-0.19
2023-01-28T19:50:12.636Z,-0.19
2023-01-28T19:52:40.378Z,-0.17
2023-01-28T19:55:32.042Z,-0.17
2023-01-28T19:57:59.743Z,-0.24
2023-01-28T20:00:29.382Z,-0.25
2023-01-28T20:02:57.209Z,-0.32
2023-01-28T20:05:26.546Z,-0.36
2023-01-28T20:07:54.189Z,-0.32
2023-01-28T20:10:21.843Z,-0.30
2023-01-28T20:12:49.445Z,-0.37
2023-01-28T20:15:17.528Z,-0.36
2023-01-28T20:17:45.403Z,-0.39
2023-01-28T20:20:14.451Z,-0.49
2023-01-28T20:22:43.746Z,-0.47
2023-01-28T20:25:11.478Z,-0.48
2023-01-28T20:27:39.097Z,-0.54
2023-01-28T20:30:07.846Z,-0.60
2023-01-28T20:32:35.672Z,-0.62
2023-01-28T20:35:03.263Z,-0.59
2023-01-28T20:37:30.901Z,-0.57
2023-01-28T20:40:00.005Z,-0.53
2023-01-28T20:42:27.851Z,-0.49
2023-01-28T20:44:55.565Z,-0.44
2023-01-28T20:47:23.183Z,-0.50
2023-01-28T20:49:51.272Z,-0.51
2023-01-28T20:52:19.199Z,-0.49
2023-01-28T20:54:47.212Z,-0.44
2023-01-28T20:57:16.195Z,-0.44
2023-01-28T20:59:43.800Z,-0.40
2023-01-28T21:02:14.729Z,-0.39
2023-01-28T21:04:42.325Z,-0.36
2023-01-28T21:07:12.677Z,-0.34
2023-01-28T21:09:40.610Z,-0.34
2023-01-28T21:12:09.201Z,-0.34
2023-01-28T21:14:38.377Z,-0.38
2023-01-28T21:17:06.142Z,-0.38
2023-01-28T21:19:33.860Z,-0.44
2023-01-28T21:22:01.479Z,-0.54
2023-01-28T21:24:29.273Z,-0.68
2023-01-28T21:26:56.951Z,-0.62
2023-01-28T21:29:24.742Z,-0.57
2023-01-28T21:31:55.729Z,-0.53
2023-01-28T21:34:24.742Z,-0.49
2023-01-28T21:36:52.349Z,-0.70
2023-01-28T21:39:20.126Z,-0.77
2023-01-28T21:41:48.745Z,-0.87
2023-01-28T21:44:16.304Z,-0.86
2023-01-28T21:46:44.013Z,-0.79
2023-01-28T21:49:13.020Z,-0.75
2023-01-28T21:51:45.928Z,-0.72
2023-01-28T21:54:15.312Z,-0.75
2023-01-28T21:56:43.830Z,-0.69
2023-01-28T21:59:30.217Z,-0.65
2023-01-28T22:01:58.777Z,-0.65
2023-01-28T22:04:29.094Z,-0.61
2023-01-28T22:06:57.132Z,-0.58
2023-01-28T22:09:25.154Z,-0.55
2023-01-28T22:11:52.925Z,-0.51
2023-01-28T22:14:20.721Z,-0.49
2023-01-28T22:16:49.039Z,-0.54
2023-01-28T22:19:16.822Z,-0.58
2023-01-28T22:21:46.923Z,-0.58
2023-01-28T22:24:16.234Z,-0.60
2023-01-28T22:26:44.773Z,-0.70
2023-01-28T22:29:12.979Z,-0.73
2023-01-28T22:31:41.081Z,-0.76
2023-01-28T22:34:09.101Z,-0.69
2023-01-28T22:36:37.314Z,-0.68
2023-01-28T22:39:08.081Z,-0.64
2023-01-28T22:41:35.873Z,-0.62
2023-01-28T22:44:04.370Z,-0.62
2023-01-28T22:46:33.394Z,-0.61
2023-01-28T22:49:01.370Z,-0.58
2023-01-28T22:51:30.915Z,-0.57
2023-01-28T22:53:58.614Z,-0.55
2023-01-28T22:56:28.835Z,-0.58
2023-01-28T22:58:57.138Z,-0.57
2023-01-28T23:01:24.837Z,-0.59
2023-01-28T23:03:53.236Z,-0.61
2023-01-28T23:06:22.368Z,-0.69
2023-01-28T23:08:51.746Z,-0.67
2023-01-28T23:11:27.195Z,-0.63
2023-01-28T23:14:15.687Z,-0.57
2023-01-28T23:17:01.130Z,-0.64
2023-01-28T23:19:58.109Z,-0.73
2023-01-28T23:22:45.615Z,-0.80
2023-01-28T23:25:13.651Z,-0.82
2023-01-28T23:27:41.320Z,-0.79
2023-01-28T23:30:12.310Z,-0.83
2023-01-28T23:32:42.046Z,-0.84
2023-01-28T23:35:10.404Z,-0.78
2023-01-28T23:37:38.418Z,-0.73
2023-01-28T23:40:07.299Z,-0.73
2023-01-28T23:42:35.169Z,-0.70
2023-01-28T23:45:02.848Z,-0.72
2023-01-28T23:47:31.924Z,-0.67
2023-01-28T23:49:59.695Z,-0.64
2023-01-28T23:52:27.695Z,-0.57
2023-01-28T23:54:56.162Z,-0.52
2023-01-28T23:57:23.840Z,-0.49
2023-01-28T23:59:51.798Z,-0.49
